| time (UTC) | temp C | wind direction | speed KPH | gust KPH | rain 1hr cm | rain 24hr cm | rain mn cm | humidity % | barometer mb |
| 20260507201927 | 10 | 270 | 8.0 | 0.0 | 0.00 | 0.00 | 0.00 | 76 | |
| 20260507192031 | 12 | 290 | 14.5 | 0.0 | 0.00 | 0.00 | 0.00 | 66 | |
| 20260507181925 | 12 | 280 | 19.3 | 0.0 | 0.00 | 0.00 | 0.00 | 66 | |
| 20260507171926 | 13 | 280 | 14.5 | 0.0 | 0.00 | 0.00 | 0.00 | 58 | |
| 20260507162227 | 16 | 260 | 14.5 | 0.0 | 0.00 | 0.00 | 0.00 | 48 | |
| 20260507151925 | 17 | 260 | 19.3 | 0.0 | 0.00 | 0.00 | 0.00 | 45 | |
| 20260507141926 | 16 | 260 | 19.3 | 0.0 | 0.00 | 0.00 | 0.00 | 44 | |
| 20260507132031 | 16 | 260 | 25.7 | 0.0 | 0.00 | 0.00 | 0.00 | 51 | |
| 20260507121926 | 16 | 270 | 22.5 | 0.0 | 0.00 | 0.00 | 0.00 | 51 | |
| 20260507111942 | 15 | 260 | 22.5 | 0.0 | 0.00 | 0.00 | 0.00 | 54 | |
| 20260507102126 | 15 | 260 | 19.3 | 0.0 | 0.00 | 0.00 | 0.00 | 58 | |
| 20260507091926 | 13 | 250 | 22.5 | 0.0 | 0.00 | 0.00 | 0.00 | 62 | |
| 20260507081925 | 12 | 230 | 19.3 | 0.0 | 0.00 | 0.00 | 0.00 | 71 | |
| 20260507071926 | 12 | 220 | 22.5 | 0.0 | 0.00 | 0.00 | 0.00 | 76 | |
| 20260507061925 | 12 | 220 | 19.3 | 0.0 | 0.00 | 0.00 | 0.00 | 81 | |
| 20260507051926 | 10 | 220 | 14.5 | 0.0 | 0.00 | 0.00 | 0.00 | 93 | |
| 20260507042129 | 10 | 240 | 19.3 | 0.0 | 0.00 | 0.00 | 0.00 | 93 | |
| 20260507031925 | 10 | 250 | 19.3 | 0.0 | 0.00 | 0.00 | 0.00 | 93 | |
| 20260507021923 | 11 | 240 | 19.3 | 0.0 | 0.00 | 0.00 | 0.00 | 87 | |
| 20260507012025 | 11 | 220 | 14.5 | 0.0 | 0.00 | 0.00 | 0.00 | 93 | |
| 20260507001926 | 11 | 210 | 8.0 | 0.0 | 0.00 | 0.00 | 0.00 | 87 | |
| 20260506231926 | 11 | 210 | 8.0 | 0.0 | 0.00 | 0.00 | 0.00 | 93 | |
| 20260506222126 | 11 | 20 | 11.3 | 0.0 | 0.00 | 0.00 | 0.00 | 93 | |
| 20260506211925 | 12 | 330 | 14.5 | 0.0 | 0.00 | 0.00 | 0.00 | 87 |